sensor_id;sensor_type;location;lat;lon;timestamp;P1;durP1;ratioP1;P2;durP2;ratioP2
75450;SDS011;64029;48.244;9.188;2023-07-29T00:01:54;7.20;;;3.47;;
75450;SDS011;64029;48.244;9.188;2023-07-29T00:04:21;5.70;;;3.10;;
75450;SDS011;64029;48.244;9.188;2023-07-29T00:06:48;4.00;;;2.63;;
75450;SDS011;64029;48.244;9.188;2023-07-29T00:09:19;3.83;;;2.50;;
75450;SDS011;64029;48.244;9.188;2023-07-29T00:11:46;5.80;;;2.17;;
75450;SDS011;64029;48.244;9.188;2023-07-29T00:14:13;4.40;;;2.40;;
75450;SDS011;64029;48.244;9.188;2023-07-29T00:16:40;2.67;;;1.83;;
75450;SDS011;64029;48.244;9.188;2023-07-29T00:19:07;4.10;;;1.97;;
75450;SDS011;64029;48.244;9.188;2023-07-29T00:21:34;2.13;;;1.50;;
75450;SDS011;64029;48.244;9.188;2023-07-29T00:24:01;6.57;;;1.93;;
75450;SDS011;64029;48.244;9.188;2023-07-29T00:26:30;4.57;;;1.80;;
75450;SDS011;64029;48.244;9.188;2023-07-29T00:28:57;2.97;;;2.33;;
75450;SDS011;64029;48.244;9.188;2023-07-29T00:31:24;3.90;;;1.90;;
75450;SDS011;64029;48.244;9.188;2023-07-29T00:33:51;5.43;;;2.00;;
75450;SDS011;64029;48.244;9.188;2023-07-29T00:36:18;3.70;;;2.13;;
75450;SDS011;64029;48.244;9.188;2023-07-29T00:38:45;5.00;;;1.80;;
75450;SDS011;64029;48.244;9.188;2023-07-29T00:41:12;6.50;;;2.80;;
75450;SDS011;64029;48.244;9.188;2023-07-29T00:43:42;3.57;;;1.70;;
75450;SDS011;64029;48.244;9.188;2023-07-29T00:46:09;3.00;;;2.10;;
75450;SDS011;64029;48.244;9.188;2023-07-29T00:48:38;3.17;;;2.70;;
75450;SDS011;64029;48.244;9.188;2023-07-29T00:51:05;9.30;;;3.63;;
75450;SDS011;64029;48.244;9.188;2023-07-29T00:53:32;6.30;;;3.17;;
75450;SDS011;64029;48.244;9.188;2023-07-29T00:55:59;5.40;;;2.90;;
75450;SDS011;64029;48.244;9.188;2023-07-29T00:58:27;4.10;;;2.70;;
75450;SDS011;64029;48.244;9.188;2023-07-29T01:00:55;7.77;;;3.10;;
75450;SDS011;64029;48.244;9.188;2023-07-29T01:03:23;4.60;;;2.70;;
75450;SDS011;64029;48.244;9.188;2023-07-29T01:05:50;5.57;;;3.03;;
75450;SDS011;64029;48.244;9.188;2023-07-29T01:08:30;4.40;;;2.90;;
75450;SDS011;64029;48.244;9.188;2023-07-29T01:11:03;5.63;;;3.00;;
75450;SDS011;64029;48.244;9.188;2023-07-29T01:13:41;7.73;;;3.80;;
75450;SDS011;64029;48.244;9.188;2023-07-29T01:16:15;6.53;;;4.40;;
75450;SDS011;64029;48.244;9.188;2023-07-29T01:18:47;10.57;;;4.10;;
75450;SDS011;64029;48.244;9.188;2023-07-29T01:21:16;8.53;;;4.50;;
75450;SDS011;64029;48.244;9.188;2023-07-29T01:23:45;7.57;;;3.93;;
75450;SDS011;64029;48.244;9.188;2023-07-29T01:26:12;8.53;;;4.67;;
75450;SDS011;64029;48.244;9.188;2023-07-29T01:28:39;8.43;;;4.40;;
75450;SDS011;64029;48.244;9.188;2023-07-29T01:31:09;13.50;;;4.43;;
75450;SDS011;64029;48.244;9.188;2023-07-29T01:33:40;8.27;;;4.23;;
75450;SDS011;64029;48.244;9.188;2023-07-29T01:36:13;8.30;;;5.30;;
75450;SDS011;64029;48.244;9.188;2023-07-29T01:38:46;7.67;;;4.30;;
75450;SDS011;64029;48.244;9.188;2023-07-29T01:41:15;7.87;;;4.17;;
75450;SDS011;64029;48.244;9.188;2023-07-29T01:43:44;6.20;;;3.93;;
75450;SDS011;64029;48.244;9.188;2023-07-29T01:46:12;8.90;;;5.07;;
75450;SDS011;64029;48.244;9.188;2023-07-29T01:48:40;7.70;;;4.20;;
75450;SDS011;64029;48.244;9.188;2023-07-29T01:51:11;4.67;;;2.90;;
75450;SDS011;64029;48.244;9.188;2023-07-29T01:53:38;6.00;;;2.97;;
75450;SDS011;64029;48.244;9.188;2023-07-29T01:56:07;4.53;;;2.63;;
75450;SDS011;64029;48.244;9.188;2023-07-29T01:58:34;7.33;;;3.43;;
75450;SDS011;64029;48.244;9.188;2023-07-29T02:01:01;5.07;;;2.77;;
75450;SDS011;64029;48.244;9.188;2023-07-29T02:03:28;4.80;;;3.00;;
75450;SDS011;64029;48.244;9.188;2023-07-29T02:05:55;8.80;;;2.90;;
75450;SDS011;64029;48.244;9.188;2023-07-29T02:08:22;4.30;;;2.60;;
75450;SDS011;64029;48.244;9.188;2023-07-29T02:10:49;5.20;;;2.83;;
75450;SDS011;64029;48.244;9.188;2023-07-29T02:13:17;3.10;;;2.20;;
75450;SDS011;64029;48.244;9.188;2023-07-29T02:15:44;3.33;;;3.03;;
75450;SDS011;64029;48.244;9.188;2023-07-29T02:18:11;4.60;;;3.27;;
75450;SDS011;64029;48.244;9.188;2023-07-29T02:20:38;4.47;;;3.40;;
75450;SDS011;64029;48.244;9.188;2023-07-29T02:23:05;4.70;;;3.03;;
75450;SDS011;64029;48.244;9.188;2023-07-29T02:25:35;3.40;;;3.10;;
75450;SDS011;64029;48.244;9.188;2023-07-29T02:28:02;5.73;;;4.23;;
75450;SDS011;64029;48.244;9.188;2023-07-29T02:30:31;6.63;;;3.10;;
75450;SDS011;64029;48.244;9.188;2023-07-29T02:32:58;4.03;;;3.03;;
75450;SDS011;64029;48.244;9.188;2023-07-29T02:35:26;4.47;;;3.33;;
75450;SDS011;64029;48.244;9.188;2023-07-29T02:37:53;4.13;;;3.27;;
75450;SDS011;64029;48.244;9.188;2023-07-29T02:40:20;5.27;;;3.87;;
75450;SDS011;64029;48.244;9.188;2023-07-29T02:42:48;8.10;;;3.90;;
75450;SDS011;64029;48.244;9.188;2023-07-29T02:45:15;4.53;;;4.10;;
75450;SDS011;64029;48.244;9.188;2023-07-29T02:47:44;3.93;;;3.53;;
75450;SDS011;64029;48.244;9.188;2023-07-29T02:50:11;4.77;;;3.70;;
75450;SDS011;64029;48.244;9.188;2023-07-29T02:52:39;7.83;;;2.53;;
75450;SDS011;64029;48.244;9.188;2023-07-29T02:55:06;3.67;;;2.57;;
75450;SDS011;64029;48.244;9.188;2023-07-29T02:57:33;3.50;;;3.00;;
75450;SDS011;64029;48.244;9.188;2023-07-29T03:00:00;3.13;;;2.63;;
75450;SDS011;64029;48.244;9.188;2023-07-29T03:02:27;4.03;;;3.60;;
75450;SDS011;64029;48.244;9.188;2023-07-29T03:04:56;4.73;;;3.33;;
75450;SDS011;64029;48.244;9.188;2023-07-29T03:07:22;4.17;;;3.60;;
75450;SDS011;64029;48.244;9.188;2023-07-29T03:09:50;6.80;;;3.70;;
75450;SDS011;64029;48.244;9.188;2023-07-29T03:12:17;4.53;;;3.00;;
75450;SDS011;64029;48.244;9.188;2023-07-29T03:14:44;5.10;;;3.30;;
75450;SDS011;64029;48.244;9.188;2023-07-29T03:17:14;4.33;;;2.40;;
75450;SDS011;64029;48.244;9.188;2023-07-29T03:19:41;3.50;;;3.10;;
75450;SDS011;64029;48.244;9.188;2023-07-29T03:22:09;3.97;;;3.03;;
75450;SDS011;64029;48.244;9.188;2023-07-29T03:24:36;4.33;;;3.03;;
75450;SDS011;64029;48.244;9.188;2023-07-29T03:27:04;3.10;;;2.80;;
75450;SDS011;64029;48.244;9.188;2023-07-29T03:29:32;8.93;;;7.30;;
75450;SDS011;64029;48.244;9.188;2023-07-29T03:31:59;12.00;;;8.70;;
75450;SDS011;64029;48.244;9.188;2023-07-29T03:34:26;13.93;;;8.53;;
75450;SDS011;64029;48.244;9.188;2023-07-29T03:36:53;8.67;;;7.00;;
75450;SDS011;64029;48.244;9.188;2023-07-29T03:39:22;7.23;;;6.10;;
75450;SDS011;64029;48.244;9.188;2023-07-29T03:41:49;5.63;;;4.40;;
75450;SDS011;64029;48.244;9.188;2023-07-29T03:44:16;6.13;;;4.13;;
75450;SDS011;64029;48.244;9.188;2023-07-29T03:46:46;7.77;;;5.07;;
75450;SDS011;64029;48.244;9.188;2023-07-29T03:49:13;6.57;;;4.90;;
75450;SDS011;64029;48.244;9.188;2023-07-29T03:51:40;3.80;;;3.40;;
75450;SDS011;64029;48.244;9.188;2023-07-29T03:54:08;3.57;;;3.03;;
75450;SDS011;64029;48.244;9.188;2023-07-29T03:56:36;3.63;;;3.20;;
75450;SDS011;64029;48.244;9.188;2023-07-29T03:59:03;3.60;;;3.13;;
75450;SDS011;64029;48.244;9.188;2023-07-29T04:01:31;3.27;;;2.97;;
75450;SDS011;64029;48.244;9.188;2023-07-29T04:03:58;3.23;;;3.03;;
75450;SDS011;64029;48.244;9.188;2023-07-29T04:06:26;3.17;;;2.87;;
75450;SDS011;64029;48.244;9.188;2023-07-29T04:08:53;4.10;;;3.70;;
75450;SDS011;64029;48.244;9.188;2023-07-29T04:11:20;3.07;;;2.80;;
75450;SDS011;64029;48.244;9.188;2023-07-29T04:13:48;5.00;;;3.80;;
75450;SDS011;64029;48.244;9.188;2023-07-29T04:16:15;6.40;;;4.00;;
75450;SDS011;64029;48.244;9.188;2023-07-29T04:18:43;4.27;;;3.70;;
75450;SDS011;64029;48.244;9.188;2023-07-29T04:21:10;3.77;;;3.20;;
75450;SDS011;64029;48.244;9.188;2023-07-29T04:23:37;5.83;;;3.03;;
75450;SDS011;64029;48.244;9.188;2023-07-29T04:26:05;3.60;;;2.40;;
75450;SDS011;64029;48.244;9.188;2023-07-29T04:28:32;3.23;;;2.10;;
75450;SDS011;64029;48.244;9.188;2023-07-29T04:31:00;2.70;;;2.43;;
75450;SDS011;64029;48.244;9.188;2023-07-29T04:35:55;4.97;;;2.47;;
75450;SDS011;64029;48.244;9.188;2023-07-29T04:38:23;4.77;;;2.60;;
75450;SDS011;64029;48.244;9.188;2023-07-29T04:40:56;2.93;;;2.63;;
75450;SDS011;64029;48.244;9.188;2023-07-29T04:43:26;3.90;;;3.00;;
75450;SDS011;64029;48.244;9.188;2023-07-29T04:45:53;3.90;;;3.40;;
75450;SDS011;64029;48.244;9.188;2023-07-29T04:48:22;4.73;;;3.73;;
75450;SDS011;64029;48.244;9.188;2023-07-29T04:50:49;5.83;;;4.00;;
75450;SDS011;64029;48.244;9.188;2023-07-29T04:53:16;5.60;;;4.03;;
75450;SDS011;64029;48.244;9.188;2023-07-29T04:55:43;4.30;;;3.90;;
75450;SDS011;64029;48.244;9.188;2023-07-29T04:58:10;7.13;;;3.60;;
75450;SDS011;64029;48.244;9.188;2023-07-29T05:00:37;6.07;;;2.93;;
75450;SDS011;64029;48.244;9.188;2023-07-29T05:03:04;3.20;;;2.83;;
75450;SDS011;64029;48.244;9.188;2023-07-29T05:05:33;3.50;;;2.70;;
75450;SDS011;64029;48.244;9.188;2023-07-29T05:08:00;3.60;;;2.97;;
75450;SDS011;64029;48.244;9.188;2023-07-29T05:10:26;3.27;;;2.97;;
75450;SDS011;64029;48.244;9.188;2023-07-29T05:12:53;3.57;;;3.23;;
75450;SDS011;64029;48.244;9.188;2023-07-29T05:15:20;3.97;;;3.60;;
75450;SDS011;64029;48.244;9.188;2023-07-29T05:17:47;4.00;;;3.40;;
75450;SDS011;64029;48.244;9.188;2023-07-29T05:20:14;2.83;;;2.63;;
75450;SDS011;64029;48.244;9.188;2023-07-29T05:22:43;9.83;;;3.33;;
75450;SDS011;64029;48.244;9.188;2023-07-29T05:25:10;6.63;;;4.40;;
75450;SDS011;64029;48.244;9.188;2023-07-29T05:27:37;5.27;;;4.77;;
75450;SDS011;64029;48.244;9.188;2023-07-29T05:30:05;3.97;;;3.67;;
75450;SDS011;64029;48.244;9.188;2023-07-29T05:32:33;2.87;;;2.67;;
75450;SDS011;64029;48.244;9.188;2023-07-29T05:35:00;3.20;;;2.67;;
75450;SDS011;64029;48.244;9.188;2023-07-29T05:37:28;4.63;;;3.03;;
75450;SDS011;64029;48.244;9.188;2023-07-29T05:39:56;3.90;;;2.87;;
75450;SDS011;64029;48.244;9.188;2023-07-29T05:42:23;3.37;;;2.90;;
75450;SDS011;64029;48.244;9.188;2023-07-29T05:44:50;3.67;;;3.37;;
75450;SDS011;64029;48.244;9.188;2023-07-29T05:47:17;3.10;;;2.63;;
75450;SDS011;64029;48.244;9.188;2023-07-29T05:49:44;3.20;;;2.40;;
75450;SDS011;64029;48.244;9.188;2023-07-29T05:52:11;2.80;;;2.20;;
75450;SDS011;64029;48.244;9.188;2023-07-29T05:54:38;3.30;;;2.50;;
75450;SDS011;64029;48.244;9.188;2023-07-29T05:57:07;3.40;;;2.70;;
75450;SDS011;64029;48.244;9.188;2023-07-29T05:59:35;4.67;;;3.07;;
75450;SDS011;64029;48.244;9.188;2023-07-29T06:02:02;4.10;;;3.70;;
75450;SDS011;64029;48.244;9.188;2023-07-29T06:04:29;4.17;;;3.63;;
75450;SDS011;64029;48.244;9.188;2023-07-29T06:06:57;3.33;;;3.03;;
75450;SDS011;64029;48.244;9.188;2023-07-29T06:09:24;3.30;;;3.00;;
75450;SDS011;64029;48.244;9.188;2023-07-29T06:11:51;3.60;;;3.07;;
75450;SDS011;64029;48.244;9.188;2023-07-29T06:14:21;5.30;;;4.40;;
75450;SDS011;64029;48.244;9.188;2023-07-29T06:16:48;3.67;;;3.23;;
75450;SDS011;64029;48.244;9.188;2023-07-29T06:19:15;4.47;;;3.80;;
75450;SDS011;64029;48.244;9.188;2023-07-29T06:21:42;5.00;;;4.37;;
75450;SDS011;64029;48.244;9.188;2023-07-29T06:24:12;4.40;;;4.00;;
75450;SDS011;64029;48.244;9.188;2023-07-29T06:26:39;7.37;;;4.27;;
75450;SDS011;64029;48.244;9.188;2023-07-29T06:29:06;5.60;;;4.33;;
75450;SDS011;64029;48.244;9.188;2023-07-29T06:31:34;5.27;;;3.90;;
75450;SDS011;64029;48.244;9.188;2023-07-29T06:34:01;6.10;;;4.80;;
75450;SDS011;64029;48.244;9.188;2023-07-29T06:36:28;3.57;;;3.27;;
75450;SDS011;64029;48.244;9.188;2023-07-29T06:38:55;6.43;;;3.93;;
75450;SDS011;64029;48.244;9.188;2023-07-29T06:41:22;6.43;;;4.00;;
75450;SDS011;64029;48.244;9.188;2023-07-29T06:43:49;5.60;;;3.80;;
75450;SDS011;64029;48.244;9.188;2023-07-29T06:46:16;6.23;;;4.00;;
75450;SDS011;64029;48.244;9.188;2023-07-29T06:48:44;4.50;;;4.00;;
75450;SDS011;64029;48.244;9.188;2023-07-29T06:51:11;6.37;;;4.47;;
75450;SDS011;64029;48.244;9.188;2023-07-29T06:53:38;5.30;;;4.40;;
75450;SDS011;64029;48.244;9.188;2023-07-29T06:56:05;4.80;;;3.33;;
75450;SDS011;64029;48.244;9.188;2023-07-29T06:58:33;6.30;;;4.23;;
75450;SDS011;64029;48.244;9.188;2023-07-29T07:01:00;4.53;;;3.80;;
75450;SDS011;64029;48.244;9.188;2023-07-29T07:03:28;5.90;;;4.10;;
75450;SDS011;64029;48.244;9.188;2023-07-29T07:05:56;3.90;;;3.60;;
75450;SDS011;64029;48.244;9.188;2023-07-29T07:08:24;5.17;;;3.70;;
75450;SDS011;64029;48.244;9.188;2023-07-29T07:10:51;4.23;;;3.63;;
75450;SDS011;64029;48.244;9.188;2023-07-29T07:13:18;7.10;;;4.10;;
75450;SDS011;64029;48.244;9.188;2023-07-29T07:15:45;4.13;;;3.73;;
75450;SDS011;64029;48.244;9.188;2023-07-29T07:18:12;4.70;;;4.07;;
75450;SDS011;64029;48.244;9.188;2023-07-29T07:20:39;4.17;;;3.77;;
75450;SDS011;64029;48.244;9.188;2023-07-29T07:23:08;4.97;;;3.80;;
75450;SDS011;64029;48.244;9.188;2023-07-29T07:25:37;4.53;;;3.77;;
75450;SDS011;64029;48.244;9.188;2023-07-29T07:28:04;7.03;;;4.53;;
75450;SDS011;64029;48.244;9.188;2023-07-29T07:30:31;5.63;;;3.90;;
75450;SDS011;64029;48.244;9.188;2023-07-29T07:32:57;8.33;;;4.70;;
75450;SDS011;64029;48.244;9.188;2023-07-29T07:35:24;10.27;;;4.40;;
75450;SDS011;64029;48.244;9.188;2023-07-29T07:37:52;24.73;;;5.07;;
75450;SDS011;64029;48.244;9.188;2023-07-29T07:40:20;12.53;;;4.87;;
75450;SDS011;64029;48.244;9.188;2023-07-29T07:42:47;9.30;;;4.20;;
75450;SDS011;64029;48.244;9.188;2023-07-29T07:45:14;8.30;;;3.90;;
75450;SDS011;64029;48.244;9.188;2023-07-29T07:47:42;8.17;;;4.03;;
75450;SDS011;64029;48.244;9.188;2023-07-29T07:50:09;6.70;;;3.70;;
75450;SDS011;64029;48.244;9.188;2023-07-29T07:52:36;4.10;;;3.70;;
75450;SDS011;64029;48.244;9.188;2023-07-29T07:55:03;3.33;;;2.93;;
75450;SDS011;64029;48.244;9.188;2023-07-29T07:57:32;4.17;;;3.63;;
75450;SDS011;64029;48.244;9.188;2023-07-29T07:59:59;4.50;;;3.23;;
75450;SDS011;64029;48.244;9.188;2023-07-29T08:02:26;3.90;;;3.03;;
75450;SDS011;64029;48.244;9.188;2023-07-29T08:04:53;5.40;;;3.53;;
75450;SDS011;64029;48.244;9.188;2023-07-29T08:07:20;3.83;;;3.27;;
75450;SDS011;64029;48.244;9.188;2023-07-29T08:09:47;4.03;;;3.47;;
75450;SDS011;64029;48.244;9.188;2023-07-29T08:12:14;4.47;;;4.07;;
75450;SDS011;64029;48.244;9.188;2023-07-29T08:14:43;4.97;;;3.20;;
75450;SDS011;64029;48.244;9.188;2023-07-29T08:17:10;4.80;;;4.10;;
75450;SDS011;64029;48.244;9.188;2023-07-29T08:19:37;4.00;;;3.70;;
75450;SDS011;64029;48.244;9.188;2023-07-29T08:22:05;6.13;;;3.93;;
75450;SDS011;64029;48.244;9.188;2023-07-29T08:24:32;7.33;;;4.17;;
75450;SDS011;64029;48.244;9.188;2023-07-29T08:26:59;6.57;;;3.73;;
75450;SDS011;64029;48.244;9.188;2023-07-29T08:29:26;3.70;;;3.23;;
75450;SDS011;64029;48.244;9.188;2023-07-29T08:31:54;4.03;;;3.33;;
75450;SDS011;64029;48.244;9.188;2023-07-29T08:34:22;4.13;;;3.33;;
75450;SDS011;64029;48.244;9.188;2023-07-29T08:36:51;6.13;;;3.33;;
75450;SDS011;64029;48.244;9.188;2023-07-29T08:39:18;13.20;;;3.30;;
75450;SDS011;64029;48.244;9.188;2023-07-29T08:41:49;5.30;;;3.33;;
75450;SDS011;64029;48.244;9.188;2023-07-29T08:44:21;5.50;;;3.50;;
75450;SDS011;64029;48.244;9.188;2023-07-29T08:46:50;7.57;;;3.37;;
75450;SDS011;64029;48.244;9.188;2023-07-29T08:49:20;3.57;;;3.07;;
75450;SDS011;64029;48.244;9.188;2023-07-29T08:51:48;2.63;;;2.43;;
75450;SDS011;64029;48.244;9.188;2023-07-29T08:54:16;4.70;;;3.47;;
75450;SDS011;64029;48.244;9.188;2023-07-29T08:56:43;3.73;;;3.20;;
75450;SDS011;64029;48.244;9.188;2023-07-29T08:59:13;2.90;;;2.27;;
75450;SDS011;64029;48.244;9.188;2023-07-29T09:01:41;2.93;;;2.53;;
75450;SDS011;64029;48.244;9.188;2023-07-29T09:04:08;3.47;;;2.57;;
75450;SDS011;64029;48.244;9.188;2023-07-29T09:06:37;3.57;;;2.67;;
75450;SDS011;64029;48.244;9.188;2023-07-29T09:09:06;3.70;;;2.50;;
75450;SDS011;64029;48.244;9.188;2023-07-29T09:11:34;4.10;;;2.90;;
75450;SDS011;64029;48.244;9.188;2023-07-29T09:14:01;2.80;;;2.60;;
75450;SDS011;64029;48.244;9.188;2023-07-29T09:16:28;3.83;;;2.70;;
75450;SDS011;64029;48.244;9.188;2023-07-29T09:18:56;3.17;;;2.87;;
75450;SDS011;64029;48.244;9.188;2023-07-29T09:21:28;4.40;;;3.43;;
75450;SDS011;64029;48.244;9.188;2023-07-29T09:23:57;4.00;;;3.03;;
75450;SDS011;64029;48.244;9.188;2023-07-29T09:26:29;6.60;;;2.90;;
75450;SDS011;64029;48.244;9.188;2023-07-29T09:28:57;3.90;;;2.90;;
75450;SDS011;64029;48.244;9.188;2023-07-29T09:31:27;3.60;;;3.23;;
75450;SDS011;64029;48.244;9.188;2023-07-29T09:33:55;6.00;;;3.30;;
75450;SDS011;64029;48.244;9.188;2023-07-29T09:36:24;3.30;;;3.00;;
75450;SDS011;64029;48.244;9.188;2023-07-29T09:38:54;5.73;;;3.10;;
75450;SDS011;64029;48.244;9.188;2023-07-29T09:41:23;3.10;;;2.90;;
75450;SDS011;64029;48.244;9.188;2023-07-29T09:43:57;3.17;;;2.80;;
75450;SDS011;64029;48.244;9.188;2023-07-29T09:46:31;3.73;;;3.27;;
75450;SDS011;64029;48.244;9.188;2023-07-29T09:48:59;3.23;;;2.93;;
75450;SDS011;64029;48.244;9.188;2023-07-29T09:51:27;3.07;;;2.77;;
75450;SDS011;64029;48.244;9.188;2023-07-29T09:53:54;2.87;;;2.63;;
75450;SDS011;64029;48.244;9.188;2023-07-29T09:56:25;3.00;;;2.50;;
75450;SDS011;64029;48.244;9.188;2023-07-29T09:58:53;8.70;;;3.20;;
75450;SDS011;64029;48.244;9.188;2023-07-29T10:01:22;3.73;;;3.10;;
75450;SDS011;64029;48.244;9.188;2023-07-29T10:03:50;7.10;;;3.23;;
75450;SDS011;64029;48.244;9.188;2023-07-29T10:06:17;3.63;;;3.23;;
75450;SDS011;64029;48.244;9.188;2023-07-29T10:08:45;4.10;;;3.20;;
75450;SDS011;64029;48.244;9.188;2023-07-29T10:11:13;11.43;;;3.70;;
75450;SDS011;64029;48.244;9.188;2023-07-29T10:13:43;6.13;;;3.17;;
75450;SDS011;64029;48.244;9.188;2023-07-29T10:16:10;6.60;;;3.43;;
75450;SDS011;64029;48.244;9.188;2023-07-29T10:18:38;6.27;;;3.27;;
75450;SDS011;64029;48.244;9.188;2023-07-29T10:21:06;5.33;;;3.10;;
75450;SDS011;64029;48.244;9.188;2023-07-29T10:23:35;3.53;;;2.97;;
75450;SDS011;64029;48.244;9.188;2023-07-29T10:26:10;3.87;;;3.30;;
75450;SDS011;64029;48.244;9.188;2023-07-29T10:28:39;5.07;;;2.73;;
75450;SDS011;64029;48.244;9.188;2023-07-29T10:31:09;3.90;;;2.90;;
75450;SDS011;64029;48.244;9.188;2023-07-29T10:33:41;6.30;;;2.73;;
75450;SDS011;64029;48.244;9.188;2023-07-29T10:36:08;3.83;;;2.60;;
75450;SDS011;64029;48.244;9.188;2023-07-29T10:38:35;3.53;;;2.90;;
75450;SDS011;64029;48.244;9.188;2023-07-29T10:41:04;4.03;;;3.13;;
75450;SDS011;64029;48.244;9.188;2023-07-29T10:43:32;3.13;;;2.70;;
75450;SDS011;64029;48.244;9.188;2023-07-29T10:48:44;3.70;;;3.23;;
75450;SDS011;64029;48.244;9.188;2023-07-29T10:51:22;3.03;;;2.70;;
75450;SDS011;64029;48.244;9.188;2023-07-29T10:53:55;3.20;;;2.90;;
75450;SDS011;64029;48.244;9.188;2023-07-29T10:56:27;3.83;;;3.20;;
75450;SDS011;64029;48.244;9.188;2023-07-29T10:58:55;3.50;;;3.20;;
75450;SDS011;64029;48.244;9.188;2023-07-29T11:01:28;6.00;;;3.40;;
75450;SDS011;64029;48.244;9.188;2023-07-29T11:09:52;4.53;;;3.03;;
75450;SDS011;64029;48.244;9.188;2023-07-29T11:12:37;3.30;;;2.60;;
75450;SDS011;64029;48.244;9.188;2023-07-29T11:15:21;2.73;;;2.30;;
75450;SDS011;64029;48.244;9.188;2023-07-29T11:17:52;4.33;;;2.63;;
75450;SDS011;64029;48.244;9.188;2023-07-29T11:20:21;2.87;;;2.67;;
75450;SDS011;64029;48.244;9.188;2023-07-29T11:22:49;3.47;;;2.90;;
75450;SDS011;64029;48.244;9.188;2023-07-29T11:25:16;3.60;;;2.67;;
75450;SDS011;64029;48.244;9.188;2023-07-29T11:27:44;2.90;;;2.70;;
75450;SDS011;64029;48.244;9.188;2023-07-29T11:30:12;2.70;;;2.30;;
75450;SDS011;64029;48.244;9.188;2023-07-29T11:32:41;3.50;;;2.67;;
75450;SDS011;64029;48.244;9.188;2023-07-29T11:35:11;2.63;;;2.43;;
75450;SDS011;64029;48.244;9.188;2023-07-29T11:37:40;2.87;;;2.60;;
75450;SDS011;64029;48.244;9.188;2023-07-29T11:40:08;3.70;;;2.40;;
75450;SDS011;64029;48.244;9.188;2023-07-29T11:42:36;2.93;;;2.70;;
75450;SDS011;64029;48.244;9.188;2023-07-29T11:45:04;3.20;;;2.57;;
75450;SDS011;64029;48.244;9.188;2023-07-29T11:47:33;2.50;;;2.30;;
75450;SDS011;64029;48.244;9.188;2023-07-29T11:50:02;3.10;;;2.80;;
75450;SDS011;64029;48.244;9.188;2023-07-29T11:52:32;3.13;;;2.37;;
75450;SDS011;64029;48.244;9.188;2023-07-29T11:55:00;5.37;;;2.60;;
75450;SDS011;64029;48.244;9.188;2023-07-29T11:57:28;4.90;;;3.10;;
75450;SDS011;64029;48.244;9.188;2023-07-29T11:59:55;3.03;;;2.63;;
75450;SDS011;64029;48.244;9.188;2023-07-29T12:02:24;2.43;;;2.23;;
75450;SDS011;64029;48.244;9.188;2023-07-29T12:04:52;3.10;;;2.80;;
75450;SDS011;64029;48.244;9.188;2023-07-29T12:07:19;2.50;;;2.30;;
75450;SDS011;64029;48.244;9.188;2023-07-29T12:09:49;3.57;;;2.60;;
75450;SDS011;64029;48.244;9.188;2023-07-29T12:12:17;3.80;;;2.37;;
75450;SDS011;64029;48.244;9.188;2023-07-29T12:14:45;3.27;;;2.30;;
75450;SDS011;64029;48.244;9.188;2023-07-29T12:17:13;2.87;;;2.57;;
75450;SDS011;64029;48.244;9.188;2023-07-29T12:19:41;3.30;;;2.40;;
75450;SDS011;64029;48.244;9.188;2023-07-29T12:22:11;2.67;;;2.47;;
75450;SDS011;64029;48.244;9.188;2023-07-29T12:24:39;2.37;;;2.17;;
75450;SDS011;64029;48.244;9.188;2023-07-29T12:27:11;2.50;;;2.10;;
75450;SDS011;64029;48.244;9.188;2023-07-29T12:29:39;2.57;;;2.37;;
75450;SDS011;64029;48.244;9.188;2023-07-29T12:32:08;2.73;;;2.50;;
75450;SDS011;64029;48.244;9.188;2023-07-29T12:34:36;3.20;;;2.47;;
75450;SDS011;64029;48.244;9.188;2023-07-29T12:37:06;2.40;;;2.20;;
75450;SDS011;64029;48.244;9.188;2023-07-29T12:39:34;2.40;;;2.20;;
75450;SDS011;64029;48.244;9.188;2023-07-29T12:42:04;2.10;;;1.90;;
75450;SDS011;64029;48.244;9.188;2023-07-29T12:44:33;2.37;;;2.17;;
75450;SDS011;64029;48.244;9.188;2023-07-29T12:47:02;2.53;;;2.33;;
75450;SDS011;64029;48.244;9.188;2023-07-29T12:49:30;2.23;;;2.03;;
75450;SDS011;64029;48.244;9.188;2023-07-29T12:51:58;3.23;;;2.40;;
75450;SDS011;64029;48.244;9.188;2023-07-29T12:54:25;2.40;;;2.10;;
75450;SDS011;64029;48.244;9.188;2023-07-29T12:56:52;2.40;;;2.20;;
75450;SDS011;64029;48.244;9.188;2023-07-29T12:59:19;2.97;;;2.50;;
75450;SDS011;64029;48.244;9.188;2023-07-29T13:01:48;2.33;;;1.80;;
75450;SDS011;64029;48.244;9.188;2023-07-29T13:04:17;2.20;;;2.00;;
75450;SDS011;64029;48.244;9.188;2023-07-29T13:06:44;2.83;;;2.57;;
75450;SDS011;64029;48.244;9.188;2023-07-29T13:09:13;3.70;;;2.53;;
75450;SDS011;64029;48.244;9.188;2023-07-29T13:11:41;2.33;;;2.07;;
75450;SDS011;64029;48.244;9.188;2023-07-29T13:14:08;4.13;;;2.47;;
75450;SDS011;64029;48.244;9.188;2023-07-29T13:16:35;2.37;;;2.17;;
75450;SDS011;64029;48.244;9.188;2023-07-29T13:19:03;2.60;;;2.17;;
75450;SDS011;64029;48.244;9.188;2023-07-29T13:21:30;2.57;;;2.37;;
75450;SDS011;64029;48.244;9.188;2023-07-29T13:23:58;2.67;;;2.47;;
75450;SDS011;64029;48.244;9.188;2023-07-29T13:26:25;2.47;;;2.27;;
75450;SDS011;64029;48.244;9.188;2023-07-29T13:28:55;2.63;;;2.43;;
75450;SDS011;64029;48.244;9.188;2023-07-29T13:31:22;2.73;;;2.47;;
75450;SDS011;64029;48.244;9.188;2023-07-29T13:33:49;2.67;;;2.37;;
75450;SDS011;64029;48.244;9.188;2023-07-29T13:36:18;2.53;;;2.27;;
75450;SDS011;64029;48.244;9.188;2023-07-29T13:38:45;2.73;;;2.53;;
75450;SDS011;64029;48.244;9.188;2023-07-29T13:41:12;2.40;;;2.20;;
75450;SDS011;64029;48.244;9.188;2023-07-29T13:43:40;3.60;;;2.70;;
75450;SDS011;64029;48.244;9.188;2023-07-29T13:46:14;2.43;;;2.23;;
75450;SDS011;64029;48.244;9.188;2023-07-29T13:48:41;2.07;;;1.87;;
75450;SDS011;64029;48.244;9.188;2023-07-29T13:51:08;8.10;;;2.77;;
75450;SDS011;64029;48.244;9.188;2023-07-29T13:53:37;9.83;;;3.80;;
75450;SDS011;64029;48.244;9.188;2023-07-29T13:56:10;5.70;;;2.90;;
75450;SDS011;64029;48.244;9.188;2023-07-29T13:58:40;6.80;;;2.40;;
75450;SDS011;64029;48.244;9.188;2023-07-29T14:01:10;3.90;;;2.90;;
75450;SDS011;64029;48.244;9.188;2023-07-29T14:03:38;8.13;;;2.77;;
75450;SDS011;64029;48.244;9.188;2023-07-29T14:06:05;3.60;;;2.63;;
75450;SDS011;64029;48.244;9.188;2023-07-29T14:08:33;3.53;;;2.77;;
75450;SDS011;64029;48.244;9.188;2023-07-29T14:11:01;3.50;;;2.57;;
75450;SDS011;64029;48.244;9.188;2023-07-29T14:13:29;2.50;;;2.17;;
75450;SDS011;64029;48.244;9.188;2023-07-29T14:15:56;4.30;;;2.43;;
75450;SDS011;64029;48.244;9.188;2023-07-29T14:18:25;2.43;;;2.23;;
75450;SDS011;64029;48.244;9.188;2023-07-29T14:20:51;2.30;;;2.10;;
75450;SDS011;64029;48.244;9.188;2023-07-29T14:23:18;2.73;;;2.53;;
75450;SDS011;64029;48.244;9.188;2023-07-29T14:25:45;2.97;;;2.23;;
75450;SDS011;64029;48.244;9.188;2023-07-29T14:28:13;2.67;;;2.30;;
75450;SDS011;64029;48.244;9.188;2023-07-29T14:30:41;2.60;;;2.40;;
75450;SDS011;64029;48.244;9.188;2023-07-29T14:33:07;2.63;;;2.13;;
75450;SDS011;64029;48.244;9.188;2023-07-29T14:35:34;5.10;;;2.03;;
75450;SDS011;64029;48.244;9.188;2023-07-29T14:38:02;2.20;;;2.00;;
75450;SDS011;64029;48.244;9.188;2023-07-29T14:40:28;2.90;;;2.27;;
75450;SDS011;64029;48.244;9.188;2023-07-29T14:42:55;3.07;;;2.27;;
75450;SDS011;64029;48.244;9.188;2023-07-29T14:45:23;2.50;;;2.30;;
75450;SDS011;64029;48.244;9.188;2023-07-29T14:47:50;2.97;;;2.07;;
75450;SDS011;64029;48.244;9.188;2023-07-29T14:50:17;3.20;;;2.37;;
75450;SDS011;64029;48.244;9.188;2023-07-29T14:52:44;2.80;;;2.60;;
75450;SDS011;64029;48.244;9.188;2023-07-29T14:55:11;2.80;;;2.53;;
75450;SDS011;64029;48.244;9.188;2023-07-29T14:57:38;2.50;;;2.30;;
75450;SDS011;64029;48.244;9.188;2023-07-29T15:00:06;2.70;;;2.13;;
75450;SDS011;64029;48.244;9.188;2023-07-29T15:02:35;2.93;;;2.30;;
75450;SDS011;64029;48.244;9.188;2023-07-29T15:05:02;2.20;;;2.00;;